Menu Close Menu
Station Historical Data
Daily Summary for September 11, 2017 Units:  Metric    English   Both
« Previous Day
Next Day »
Daily Weekly Monthly Yearly Custom
  High: Low: Average:
Temperature: 17.3 °C 12.6 °C 14.7 °C
Dew Point: 15.1 °C 8.9 °C 12.4 °C
Humidity: 93% 58% 87%
Wind Speed: 32.2km/h 0km/h 8.4km/h
Wind Gust: 61.2km/h - -
Wind- - SE
Pressure: 1021.2 hPa 1000.2 hPa -
Precipitation: 83.82 mm    
Historical Graphs
 
 
Tabular Data for September 11, 2017
Time Temperature Dew Point Pressure Wind Wind Speed Wind Gust Humidity Rainfall Rate (Hourly) solar Conditions
00:00 17.3 °C 8.9 °C 1021.2 hPa West 1.6 km/h 3.2 km/h 58% 0 mm WeatherDisplay:10.37 W/m2 OVC
00:10 17.2 °C 8.9 °C 1021.2 hPa WSW 1.6 km/h 8 km/h 58% 0 mm WeatherDisplay:10.37 W/m2 OVC
00:15 17.2 °C 9.1 °C 1021.2 hPa Calm   4.8 km/h 59% 0 mm WeatherDisplay:10.37 W/m2 OVC
00:20 17.1 °C 9.3 °C 1020.9 hPa West 1.6 km/h 8 km/h 60% 0 mm WeatherDisplay:10.37 W/m2 CLR
00:25 17.1 °C 9.3 °C 1021.2 hPa West 1.6 km/h 9.7 km/h 60% 0 mm WeatherDisplay:10.37 W/m2 CLR
00:30 17.1 °C 9.3 °C 1020.9 hPa West 1.6 km/h 8 km/h 60% 0 mm WeatherDisplay:10.37 W/m2 CLR
00:35 17.1 °C 9.3 °C 1021.2 hPa Calm   4.8 km/h 60% 0 mm WeatherDisplay:10.37 W/m2 CLR
00:40 17.1 °C 9.2 °C 1021.2 hPa West 1.6 km/h 3.2 km/h 60% 0 mm WeatherDisplay:10.37 W/m2 CLR
00:45 17 °C 9.2 °C 1021.2 hPa West 1.6 km/h 4.8 km/h 60% 0 mm WeatherDisplay:10.37 W/m2 CLR
00:50 16.9 °C 9.4 °C 1021.2 hPa West 1.6 km/h 4.8 km/h 61% 0 mm WeatherDisplay:10.37 W/m2 CLR
00:55 16.9 °C 9.4 °C 1020.9 hPa West 3.2 km/h 8 km/h 61% 0 mm WeatherDisplay:10.37 W/m2 CLR
01:00 16.9 °C 9.4 °C 1020.9 hPa Calm   8 km/h 61% 0 mm WeatherDisplay:10.37 W/m2 CLR
01:05 16.9 °C 9.6 °C 1020.9 hPa West 1.6 km/h 4.8 km/h 62% 0 mm WeatherDisplay:10.37 W/m2 CLR
01:10 16.9 °C 9.3 °C 1020.9 hPa WSW 1.6 km/h 4.8 km/h 61% 0 mm WeatherDisplay:10.37 W/m2 CLR
01:15 16.8 °C 9.7 °C 1020.9 hPa Calm   4.8 km/h 63% 0 mm WeatherDisplay:10.37 W/m2 CLR
01:20 16.8 °C 9.4 °C 1020.5 hPa West 1.6 km/h 4.8 km/h 62% 0 mm WeatherDisplay:10.37 W/m2 CLR
01:25 16.8 °C 9.7 °C 1020.5 hPa Calm   3.2 km/h 63% 0 mm WeatherDisplay:10.37 W/m2 CLR
01:30 16.7 °C 9.4 °C 1020.5 hPa West 1.6 km/h 3.2 km/h 62% 0 mm WeatherDisplay:10.37 W/m2 CLR
01:40 16.7 °C 9.7 °C 1020.5 hPa West 1.6 km/h 4.8 km/h 63% 0 mm WeatherDisplay:10.37 W/m2 CLR
01:45 16.7 °C 9.7 °C 1020.5 hPa Calm   3.2 km/h 63% 0 mm WeatherDisplay:10.37 W/m2 CLR
01:50 16.7 °C 9.6 °C 1020.5 hPa Calm   3.2 km/h 63% 0 mm WeatherDisplay:10.37 W/m2 CLR
01:55 16.7 °C 9.7 °C 1020.5 hPa Calm   8 km/h 63% 0 mm WeatherDisplay:10.37 W/m2 CLR
02:00 16.7 °C 9.7 °C 1020.5 hPa WNW 1.6 km/h 8 km/h 63% 0 mm WeatherDisplay:10.37 W/m2 CLR
02:05 16.7 °C 9.7 °C 1020.2 hPa West 1.6 km/h 8 km/h 63% 0 mm WeatherDisplay:10.37 W/m2 CLR
02:10 16.7 °C 9.8 °C 1020.2 hPa WNW 1.6 km/h 4.8 km/h 64% 0 mm WeatherDisplay:10.37 W/m2 CLR
02:15 16.7 °C 9.9 °C 1020.2 hPa West 1.6 km/h 8 km/h 64% 0 mm WeatherDisplay:10.37 W/m2 CLR
02:20 16.7 °C 9.9 °C 1020.2 hPa West 1.6 km/h 4.8 km/h 64% 0 mm WeatherDisplay:10.37 W/m2 CLR
02:30 16.7 °C 10.1 °C 1019.9 hPa WNW 1.6 km/h 3.2 km/h 65% 0 mm WeatherDisplay:10.37 W/m2 CLR
02:40 16.6 °C 10 °C 1019.9 hPa WNW 1.6 km/h 4.8 km/h 65% 0 mm WeatherDisplay:10.37 W/m2 CLR
02:45 16.6 °C 10 °C 1019.5 hPa WNW 1.6 km/h 8 km/h 65% 0 mm WeatherDisplay:10.37 W/m2 CLR
02:55 16.6 °C 10.2 °C 1019.2 hPa West 1.6 km/h 9.7 km/h 66% 0 mm WeatherDisplay:10.37 W/m2 CLR
03:00 16.6 °C 10.2 °C 1019.2 hPa Calm   3.2 km/h 66% 0 mm WeatherDisplay:10.37 W/m2 CLR
03:05 16.5 °C 10.1 °C 1018.8 hPa WNW 1.6 km/h 4.8 km/h 66% 0 mm WeatherDisplay:10.37 W/m2 CLR
03:10 16.5 °C 10.1 °C 1018.8 hPa WNW 1.6 km/h 4.8 km/h 66% 0 mm WeatherDisplay:10.37 W/m2 CLR
03:15 16.5 °C 10.3 °C 1018.8 hPa Calm   4.8 km/h 67% 0 mm WeatherDisplay:10.37 W/m2 CLR
03:20 16.4 °C 10.3 °C 1018.8 hPa West 1.6 km/h 3.2 km/h 67% 0 mm WeatherDisplay:10.37 W/m2 CLR
03:25 16.4 °C 10.3 °C 1018.8 hPa WNW 1.6 km/h 8 km/h 67% 0 mm WeatherDisplay:10.37 W/m2 CLR
03:30 16.4 °C 10.4 °C 1018.8 hPa WNW 1.6 km/h 9.7 km/h 68% 0 mm WeatherDisplay:10.37 W/m2 CLR
03:35 16.3 °C 10.6 °C 1018.8 hPa WNW 1.6 km/h 3.2 km/h 69% 0 mm WeatherDisplay:10.37 W/m2 CLR
03:40 16.1 °C 10.6 °C 1018.8 hPa West 1.6 km/h 4.8 km/h 70% 0 mm WeatherDisplay:10.37 W/m2 CLR
03:45 15.9 °C 10.9 °C 1018.8 hPa West 1.6 km/h 8 km/h 72% 0 mm WeatherDisplay:10.37 W/m2 CLR
03:50 15.7 °C 10.9 °C 1018.8 hPa Calm   3.2 km/h 73% 0 mm WeatherDisplay:10.37 W/m2 CLR
03:55 15.5 °C 10.9 °C 1018.8 hPa West 1.6 km/h 4.8 km/h 74% 0 mm WeatherDisplay:10.37 W/m2 CLR
04:00 15.3 °C 10.9 °C 1018.8 hPa West 1.6 km/h 3.2 km/h 75% 0 mm WeatherDisplay:10.37 W/m2 CLR
04:05 15.2 °C 10.9 °C 1018.8 hPa West 1.6 km/h 4.8 km/h 76% 0 mm WeatherDisplay:10.37 W/m2 CLR
04:10 15.1 °C 10.8 °C 1018.8 hPa West 1.6 km/h 3.2 km/h 76% 0 mm WeatherDisplay:10.37 W/m2 CLR
04:20 14.8 °C 11.1 °C 1018.8 hPa Calm   4.8 km/h 78% 0 mm WeatherDisplay:10.37 W/m2 CLR
04:25 14.7 °C 11.1 °C 1018.8 hPa West 1.6 km/h 3.2 km/h 79% 0 mm WeatherDisplay:10.37 W/m2 CLR
04:30 14.6 °C 11 °C 1018.8 hPa West 3.2 km/h 8 km/h 79% 0 mm WeatherDisplay:10.37 W/m2 CLR
04:35 14.5 °C 11.1 °C 1018.8 hPa WNW 1.6 km/h 3.2 km/h 80% 0 mm WeatherDisplay:10.37 W/m2 CLR
04:40 14.3 °C 11.3 °C 1018.5 hPa Calm   3.2 km/h 82% 0 mm WeatherDisplay:10.37 W/m2 CLR
04:45 14.2 °C 11.4 °C 1018.5 hPa Calm   3.2 km/h 83% 0 mm WeatherDisplay:10.37 W/m2 CLR
04:50 14.1 °C 11.4 °C 1018.5 hPa Calm   1.6 km/h 84% 0 mm WeatherDisplay:10.37 W/m2 CLR
04:55 14 °C 11.3 °C 1018.5 hPa Calm   3.2 km/h 84% 0 mm WeatherDisplay:10.37 W/m2 CLR
05:00 13.9 °C 11.4 °C 1018.5 hPa Calm   4.8 km/h 85% 0 mm WeatherDisplay:10.37 W/m2 CLR
05:05 13.8 °C 11.6 °C 1018.5 hPa Calm   1.6 km/h 86% 0 mm WeatherDisplay:10.37 W/m2 CLR
05:10 13.7 °C 11.4 °C 1018.2 hPa Calm   1.6 km/h 86% 0.25 mm WeatherDisplay:10.37 W/m2 CLR
05:15 13.7 °C 11.6 °C 1018.2 hPa Calm   3.2 km/h 87% 0 mm WeatherDisplay:10.37 W/m2 CLR
05:20 13.6 °C 11.7 °C 1018.2 hPa Calm   1.6 km/h 88% 0 mm WeatherDisplay:10.37 W/m2 -RA
05:25 13.6 °C 11.6 °C 1018.2 hPa Calm   1.6 km/h 88% 0.25 mm WeatherDisplay:10.37 W/m2 -RA
05:30 13.4 °C 11.5 °C 1018.2 hPa Calm   8 km/h 88% 0 mm WeatherDisplay:10.37 W/m2 -RA
05:35 13.4 °C 11.6 °C 1018.2 hPa Calm   3.2 km/h 89% 0.25 mm WeatherDisplay:10.37 W/m2 -RA
05:40 13.3 °C 11.4 °C 1018.2 hPa WNW 1.6 km/h 4.8 km/h 88% 0 mm WeatherDisplay:10.37 W/m2 -RA
05:45 13.3 °C 11.3 °C 1017.8 hPa Calm   3.2 km/h 88% 0.25 mm WeatherDisplay:10.37 W/m2 -RA
05:50 13.3 °C 11.5 °C 1017.8 hPa Calm   3.2 km/h 89% 0 mm WeatherDisplay:10.37 W/m2 -RA
05:55 13.2 °C 11.4 °C 1017.8 hPa WNW 1.6 km/h 3.2 km/h 89% 0 mm WeatherDisplay:10.37 W/m2 -RA
06:00 13.2 °C 11.4 °C 1017.8 hPa Calm   3.2 km/h 89% 0.25 mm WeatherDisplay:10.37 W/m2 -RA
06:05 13.2 °C 11.4 °C 1018.2 hPa Calm   3.2 km/h 89% 0 mm WeatherDisplay:10.37 W/m2 -RA
06:10 13.2 °C 11.4 °C 1017.8 hPa Calm   3.2 km/h 89% 0.25 mm WeatherDisplay:10.37 W/m2 -RA
06:15 13.2 °C 11.6 °C 1017.8 hPa Calm   4.8 km/h 90% 0 mm WeatherDisplay:10.37 W/m2 -RA
06:20 13.2 °C 11.6 °C 1017.8 hPa Calm   4.8 km/h 90% 0.25 mm WeatherDisplay:10.37 W/m2 -RA
06:25 13.1 °C 11.5 °C 1017.5 hPa Calm   4.8 km/h 90% 0 mm WeatherDisplay:10.37 W/m2 -RA
06:30 13.1 °C 11.5 °C 1017.5 hPa Calm   3.2 km/h 90% 0 mm WeatherDisplay:10.37 W/m2 -RA
06:35 13.1 °C 11.5 °C 1017.2 hPa Calm   3.2 km/h 90% 0.25 mm WeatherDisplay:10.37 W/m2 -RA
06:40 13.1 °C 11.4 °C 1017.2 hPa Calm   1.6 km/h 90% 0 mm WeatherDisplay:10.37 W/m2 -RA
06:45 13.1 °C 11.4 °C 1017.2 hPa Calm   1.6 km/h 90% 0.25 mm WeatherDisplay:10.37 W/m2 -RA
06:50 13 °C 11.4 °C 1017.2 hPa Calm   4.8 km/h 90% 0 mm WeatherDisplay:10.37 W/m2 -RA
06:55 13 °C 11.4 °C 1017.2 hPa WNW 1.6 km/h 8 km/h 90% 0.25 mm WeatherDisplay:10.37 W/m2 -RA
07:00 13 °C 11.4 °C 1017.2 hPa Calm   3.2 km/h 90% 0 mm WeatherDisplay:10.37 W/m2 -RA
07:05 13 °C 11.4 °C 1017.2 hPa North 1.6 km/h 3.2 km/h 90% 0.25 mm WeatherDisplay:10.37 W/m2 -RA
07:10 12.9 °C 11.5 °C 1017.2 hPa West 1.6 km/h 3.2 km/h 91% 0 mm WeatherDisplay:10.37 W/m2 -RA
07:15 12.9 °C 11.3 °C 1017.2 hPa West 1.6 km/h 3.2 km/h 90% 0 mm WeatherDisplay:10.37 W/m2 -RA
07:20 12.9 °C 11.3 °C 1017.2 hPa Calm   1.6 km/h 90% 0.25 mm WeatherDisplay:10.37 W/m2 -RA
07:25 12.9 °C 11.3 °C 1017.2 hPa Calm   8 km/h 90% 0 mm WeatherDisplay:10.37 W/m2 -RA
07:30 12.8 °C 11.2 °C 1017.2 hPa Calm   9.7 km/h 90% 0 mm WeatherDisplay:10.37 W/m2 -RA
07:35 12.8 °C 11.2 °C 1017.2 hPa Calm   1.6 km/h 90% 0.25 mm WeatherDisplay:10.37 W/m2 -RA
07:40 12.7 °C 11.1 °C 1016.8 hPa NW 1.6 km/h 8 km/h 90% 0 mm WeatherDisplay:10.37 W/m2 -RA
07:45 12.7 °C 11.1 °C 1016.8 hPa Calm   4.8 km/h 90% 0.25 mm WeatherDisplay:10.37 W/m2 -RA
07:50 12.7 °C 11.1 °C 1016.8 hPa Calm   1.6 km/h 90% 0 mm WeatherDisplay:10.37 W/m2 -RA
07:55 12.7 °C 11.3 °C 1016.8 hPa Calm   3.2 km/h 91% 0.25 mm WeatherDisplay:10.37 W/m2 -RA
08:00 12.7 °C 11.2 °C 1016.8 hPa Calm   1.6 km/h 91% 0.25 mm WeatherDisplay:10.37 W/m2 -RA
08:05 12.6 °C 11.2 °C 1016.8 hPa Calm   3.2 km/h 91% 0.25 mm WeatherDisplay:10.37 W/m2 -RA
08:10 12.6 °C 11.2 °C 1016.5 hPa Calm   1.6 km/h 91% 0.25 mm WeatherDisplay:10.37 W/m2 -RA
08:15 12.6 °C 11.2 °C 1016.5 hPa Calm   3.2 km/h 91% 0.25 mm WeatherDisplay:10.37 W/m2 -RA
08:20 12.6 °C 11.2 °C 1016.5 hPa Calm   3.2 km/h 91% 0 mm WeatherDisplay:10.37 W/m2 -RA
08:30 12.6 °C 11.2 °C 1016.1 hPa WNW 1.6 km/h 4.8 km/h 91% 0.25 mm WeatherDisplay:10.37 W/m2 -RA
08:40 12.6 °C 11.2 °C 1016.1 hPa Calm   9.7 km/h 91% 0 mm WeatherDisplay:10.37 W/m2 -RA
08:45 12.6 °C 11.1 °C 1015.8 hPa NW 1.6 km/h 3.2 km/h 91% 0.25 mm WeatherDisplay:10.37 W/m2 -RA
08:50 12.6 °C 11.1 °C 1016.1 hPa Calm   3.2 km/h 91% 0.25 mm WeatherDisplay:10.37 W/m2 -RA
08:55 12.6 °C 11.1 °C 1016.1 hPa Calm   1.6 km/h 91% 0.25 mm WeatherDisplay:10.37 W/m2 -RA
09:00 12.6 °C 11.2 °C 1015.8 hPa Calm   3.2 km/h 91% 0.25 mm WeatherDisplay:10.37 W/m2 -RA
09:05 12.6 °C 11.1 °C 1015.8 hPa Calm   3.2 km/h 91% 0.25 mm WeatherDisplay:10.37 W/m2 -RA
09:10 12.6 °C 11.1 °C 1015.8 hPa Calm   4.8 km/h 91% 0.25 mm WeatherDisplay:10.37 W/m2 -RA
09:15 12.6 °C 11.3 °C 1015.8 hPa Calm   1.6 km/h 92% 0.25 mm WeatherDisplay:10.37 W/m2 -RA
09:20 12.6 °C 11.3 °C 1015.5 hPa Calm   4.8 km/h 92% 0.25 mm WeatherDisplay:10.37 W/m2 -RA
09:25 12.6 °C 11.3 °C 1015.5 hPa NW 1.6 km/h 8 km/h 92% 0.25 mm WeatherDisplay:10.37 W/m2 -RA
09:30 12.6 °C 11.3 °C 1015.1 hPa NW 1.6 km/h 4.8 km/h 92% 0.25 mm WeatherDisplay:10.37 W/m2 -RA
09:40 12.6 °C 11.3 °C 1014.8 hPa Calm   4.8 km/h 92% 0.51 mm WeatherDisplay:10.37 W/m2 -RA
09:45 12.6 °C 11.4 °C 1014.8 hPa Calm   4.8 km/h 92% 0 mm WeatherDisplay:10.37 W/m2 OVC
09:50 12.7 °C 11.4 °C 1014.4 hPa Calm   4.8 km/h 92% 0.51 mm WeatherDisplay:10.37 W/m2 RA
09:55 12.7 °C 11.4 °C 1014.4 hPa Calm   1.6 km/h 92% 0.25 mm WeatherDisplay:10.37 W/m2 RA
10:00 12.7 °C 11.4 °C 1014.4 hPa Calm   8 km/h 92% 0.25 mm WeatherDisplay:10.37 W/m2 RA
10:05 12.7 °C 11.4 °C 1014.1 hPa Calm   8 km/h 92% 0.25 mm WeatherDisplay:10.37 W/m2 OVC
10:10 12.7 °C 11.4 °C 1014.4 hPa Calm   4.8 km/h 92% 0.25 mm WeatherDisplay:10.37 W/m2 RA
10:15 12.7 °C 11.4 °C 1014.1 hPa Calm   1.6 km/h 92% 0.25 mm WeatherDisplay:10.37 W/m2 RA
10:20 12.8 °C 11.5 °C 1014.1 hPa WNW 1.6 km/h 4.8 km/h 92% 0 mm WeatherDisplay:10.37 W/m2 OVC
10:25 12.8 °C 11.5 °C 1014.4 hPa WNW 1.6 km/h 3.2 km/h 92% 0.25 mm WeatherDisplay:10.37 W/m2 OVC
10:30 12.8 °C 11.6 °C 1014.4 hPa Calm   3.2 km/h 92% 0.25 mm WeatherDisplay:10.37 W/m2 RA
10:40 12.9 °C 11.7 °C 1013.8 hPa Calm   1.6 km/h 92% 0.25 mm WeatherDisplay:10.37 W/m2 OVC
10:45 12.9 °C 11.7 °C 1013.8 hPa Calm   3.2 km/h 92% 0.25 mm WeatherDisplay:10.37 W/m2 OVC
10:50 13 °C 11.8 °C 1013.1 hPa Calm   8 km/h 92% 0.51 mm WeatherDisplay:10.37 W/m2 RA
10:55 13.1 °C 11.8 °C 1013.1 hPa Calm   3.2 km/h 92% 0 mm WeatherDisplay:10.37 W/m2 OVC
11:00 13.2 °C 11.9 °C 1013.1 hPa Calm   3.2 km/h 92% 0.25 mm WeatherDisplay:10.37 W/m2 OVC
11:05 13.2 °C 11.9 °C 1013.1 hPa Calm   3.2 km/h 92% 0.25 mm WeatherDisplay:10.37 W/m2 OVC
11:10 13.3 °C 12.2 °C 1013.1 hPa Calm   1.6 km/h 93% 0.25 mm WeatherDisplay:10.37 W/m2 RA
11:15 13.4 °C 12.3 °C 1012.8 hPa Calm   3.2 km/h 93% 0 mm WeatherDisplay:10.37 W/m2 -RA
11:20 13.4 °C 12.3 °C 1012.8 hPa Calm   8 km/h 93% 0.25 mm WeatherDisplay:10.37 W/m2 -RA
11:25 13.6 °C 12.4 °C 1012.8 hPa Calm   8 km/h 93% 0.25 mm WeatherDisplay:10.37 W/m2 -RA
11:30 13.7 °C 12.6 °C 1012.8 hPa Calm   3.2 km/h 93% 0 mm WeatherDisplay:10.37 W/m2 -RA
11:35 13.8 °C 12.7 °C 1012.4 hPa Calm   4.8 km/h 93% 0 mm WeatherDisplay:10.37 W/m2 -RA
11:40 13.9 °C 12.8 °C 1012.1 hPa Calm   4.8 km/h 93% 0.25 mm WeatherDisplay:10.37 W/m2 -RA
11:45 13.9 °C 12.8 °C 1012.4 hPa NNW 1.6 km/h 8 km/h 93% 0 mm WeatherDisplay:10.37 W/m2 -RA
11:50 14.1 °C 13 °C 1012.1 hPa Calm   3.2 km/h 93% 0 mm WeatherDisplay:10.37 W/m2 -RA
11:55 14.2 °C 13.1 °C 1012.1 hPa Calm   4.8 km/h 93% 0.25 mm WeatherDisplay:10.37 W/m2 -RA
12:00 14.3 °C 13.2 °C 1011.7 hPa Calm   8 km/h 93% 0.25 mm WeatherDisplay:10.37 W/m2 -RA
12:05 14.4 °C 13.3 °C 1012.4 hPa NW 3.2 km/h 8 km/h 93% 0 mm WeatherDisplay:10.37 W/m2 -RA
12:10 14.5 °C 13.4 °C 1012.1 hPa Calm   3.2 km/h 93% 0 mm WeatherDisplay:10.37 W/m2 -RA
12:15 14.6 °C 13.5 °C 1012.1 hPa Calm   3.2 km/h 93% 0 mm WeatherDisplay:10.37 W/m2 -RA
12:20 14.7 °C 13.6 °C 1011.4 hPa Calm   3.2 km/h 93% 0 mm WeatherDisplay:10.37 W/m2 -RA
12:25 14.7 °C 13.6 °C 1011.4 hPa Calm   4.8 km/h 93% 0.25 mm WeatherDisplay:10.37 W/m2 -RA
12:30 14.8 °C 13.7 °C 1012.1 hPa NW 1.6 km/h 4.8 km/h 93% 0 mm WeatherDisplay:10.37 W/m2 -RA
12:35 14.8 °C 13.7 °C 1011.7 hPa Calm   3.2 km/h 93% 0 mm WeatherDisplay:10.37 W/m2 -RA
12:40 14.9 °C 13.8 °C 1011.7 hPa Calm   4.8 km/h 93% 0.25 mm WeatherDisplay:10.37 W/m2 -RA
12:45 14.9 °C 13.8 °C 1011.1 hPa ENE 1.6 km/h 8 km/h 93% 0.25 mm WeatherDisplay:10.37 W/m2 -RA
12:50 15 °C 13.9 °C 1010.4 hPa NNE 1.6 km/h 8 km/h 93% 0 mm WeatherDisplay:10.37 W/m2 -RA
12:55 15 °C 13.7 °C 1010 hPa NE 1.6 km/h 14.5 km/h 92% 0 mm WeatherDisplay:10.37 W/m2 -RA
13:00 15.1 °C 13.8 °C 1010 hPa Calm   11.3 km/h 92% 0.25 mm WeatherDisplay:10.37 W/m2 -RA
13:10 15.1 °C 13.8 °C 1010 hPa NNW 1.6 km/h 8 km/h 92% 0 mm WeatherDisplay:10.37 W/m2 -RA
13:15 15.1 °C 13.8 °C 1010 hPa NW 1.6 km/h 8 km/h 92% 0.25 mm WeatherDisplay:10.37 W/m2 -RA
13:20 15.1 °C 13.7 °C 1009.7 hPa NW 1.6 km/h 4.8 km/h 92% 0 mm WeatherDisplay:10.37 W/m2 -RA
13:25 15 °C 13.6 °C 1009.7 hPa NNW 1.6 km/h 4.8 km/h 91% 0.25 mm WeatherDisplay:10.37 W/m2 -RA
13:30 15 °C 13.7 °C 1009.7 hPa Calm   3.2 km/h 92% 0.25 mm WeatherDisplay:10.37 W/m2 -RA
13:40 14.9 °C 13.6 °C 1009.4 hPa North 1.6 km/h 4.8 km/h 92% 0.25 mm WeatherDisplay:10.37 W/m2 -RA
13:45 14.8 °C 13.4 °C 1009.4 hPa North 1.6 km/h 4.8 km/h 91% 0.25 mm WeatherDisplay:10.37 W/m2 -RA
13:50 14.8 °C 13.3 °C 1009.7 hPa North 1.6 km/h 11.3 km/h 91% 0 mm WeatherDisplay:10.37 W/m2 -RA
13:55 14.7 °C 13.3 °C 1009.4 hPa NNW 1.6 km/h 8 km/h 91% 0.25 mm WeatherDisplay:10.37 W/m2 -RA
14:00 14.7 °C 13.3 °C 1008.7 hPa Calm   3.2 km/h 91% 0.25 mm WeatherDisplay:10.37 W/m2 -RA
14:10 14.7 °C 13.4 °C 1008 hPa East 1.6 km/h 4.8 km/h 92% 0.51 mm WeatherDisplay:10.37 W/m2 -RA
14:15 14.7 °C 13.4 °C 1007.7 hPa NE 1.6 km/h 4.8 km/h 92% 0.51 mm WeatherDisplay:10.37 W/m2 RA
14:20 14.7 °C 13.2 °C 1007.7 hPa Calm   8 km/h 91% 0.51 mm WeatherDisplay:10.37 W/m2 RA
14:25 14.7 °C 13.2 °C 1007.3 hPa NNW 3.2 km/h 8 km/h 91% 0.76 mm WeatherDisplay:10.37 W/m2 RA
14:30 14.6 °C 13.2 °C 1007 hPa SSE 1.6 km/h 8 km/h 91% 0.25 mm WeatherDisplay:10.37 W/m2 RA
14:40 14.6 °C 13.2 °C 1006.3 hPa ENE 1.6 km/h 9.7 km/h 92% 0.51 mm WeatherDisplay:10.37 W/m2 RA
14:45 14.5 °C 13.1 °C 1006.7 hPa North 1.6 km/h 8 km/h 91% 0.25 mm WeatherDisplay:10.37 W/m2 RA
14:50 14.5 °C 13.1 °C 1006 hPa North 1.6 km/h 8 km/h 91% 0.25 mm WeatherDisplay:10.37 W/m2 OVC
14:55 14.4 °C 13 °C 1005 hPa East 1.6 km/h 4.8 km/h 91% 0.25 mm WeatherDisplay:10.37 W/m2 OVC
15:00 14.4 °C 13.2 °C 1006 hPa NNE 25.7 km/h 41.8 km/h 92% 0.51 mm WeatherDisplay:10.37 W/m2 RA
15:10 14.5 °C 13.2 °C 1005.3 hPa North 25.7 km/h 41.8 km/h 92% 0.25 mm WeatherDisplay:10.37 W/m2 OVC
15:15 14.5 °C 13.2 °C 1005 hPa North 25.7 km/h 51.5 km/h 92% 0.51 mm WeatherDisplay:10.37 W/m2 RA
15:20 14.5 °C 13.2 °C 1005 hPa North 25.7 km/h 51.5 km/h 92% 0.51 mm WeatherDisplay:10.37 W/m2 RA
15:25 14.5 °C 13.2 °C 1004.6 hPa North 25.7 km/h 51.5 km/h 92% 0.25 mm WeatherDisplay:10.37 W/m2 OVC
15:30 14.5 °C 13.2 °C 1004.6 hPa North 25.7 km/h 51.5 km/h 92% 0.76 mm WeatherDisplay:10.37 W/m2 RA
15:35 14.6 °C 13.2 °C 1004.6 hPa North 25.7 km/h 51.5 km/h 92% 0.76 mm WeatherDisplay:10.37 W/m2 RA
15:40 14.6 °C 13.3 °C 1005 hPa North 25.7 km/h 51.5 km/h 92% 0.76 mm WeatherDisplay:10.37 W/m2 RA
15:45 14.6 °C 13.3 °C 1004.6 hPa North 25.7 km/h 51.5 km/h 92% 0.76 mm WeatherDisplay:10.37 W/m2 RA
15:50 14.6 °C 13.3 °C 1004.3 hPa North 25.7 km/h 51.5 km/h 92% 0.76 mm WeatherDisplay:10.37 W/m2 RA
15:55 14.6 °C 13.3 °C 1004.3 hPa NNE 27.4 km/h 56.3 km/h 92% 0.76 mm WeatherDisplay:10.37 W/m2 RA
16:00 14.7 °C 13.4 °C 1003.9 hPa NNE 27.4 km/h 56.3 km/h 92% 0.76 mm WeatherDisplay:10.37 W/m2 RA
16:05 14.7 °C 13.4 °C 1003.9 hPa NNE 27.4 km/h 56.3 km/h 92% 0.76 mm WeatherDisplay:10.37 W/m2 RA
16:10 14.7 °C 13.4 °C 1003.9 hPa NNE 27.4 km/h 56.3 km/h 92% 1.02 mm WeatherDisplay:10.37 W/m2 RA
16:15 14.7 °C 13.4 °C 1003.9 hPa NNE 32.2 km/h 61.2 km/h 92% 0.76 mm WeatherDisplay:10.37 W/m2 RA
16:20 14.7 °C 13.4 °C 1003.6 hPa North 32.2 km/h 61.2 km/h 92% 1.02 mm WeatherDisplay:10.37 W/m2 RA
16:25 14.7 °C 13.4 °C 1003.6 hPa North 32.2 km/h 61.2 km/h 92% 0.76 mm WeatherDisplay:10.37 W/m2 RA
16:30 14.8 °C 13.5 °C 1003.6 hPa North 32.2 km/h 61.2 km/h 92% 0.76 mm WeatherDisplay:10.37 W/m2 RA
16:40 14.8 °C 13.6 °C 1003.6 hPa North 32.2 km/h 61.2 km/h 92% 1.52 mm WeatherDisplay:10.37 W/m2 RA
16:45 14.8 °C 13.6 °C 1003.6 hPa North 32.2 km/h 61.2 km/h 92% 2.03 mm WeatherDisplay:10.37 W/m2 RA
16:50 14.9 °C 13.8 °C 1003.6 hPa North 32.2 km/h 61.2 km/h 93% 1.27 mm WeatherDisplay:10.37 W/m2 RA
16:55 14.9 °C 13.8 °C 1003.3 hPa North 32.2 km/h 61.2 km/h 93% 1.02 mm WeatherDisplay:10.37 W/m2 RA
17:00 14.9 °C 13.8 °C 1002.9 hPa North 32.2 km/h 61.2 km/h 93% 1.27 mm WeatherDisplay:10.37 W/m2 RA
17:05 15 °C 13.9 °C 1002.9 hPa North 32.2 km/h 61.2 km/h 93% 1.52 mm WeatherDisplay:10.37 W/m2 RA
17:10 15 °C 13.7 °C 1002.6 hPa North 32.2 km/h 61.2 km/h 92% 1.02 mm WeatherDisplay:10.37 W/m2 RA
17:15 15.1 °C 13.9 °C 1002.3 hPa NNE 25.7 km/h 61.2 km/h 93% 1.02 mm WeatherDisplay:10.37 W/m2 RA
17:20 15.1 °C 13.9 °C 1002.3 hPa NNE 25.7 km/h 48.3 km/h 93% 0.76 mm WeatherDisplay:10.37 W/m2 RA
17:25 15.1 °C 13.9 °C 1002.3 hPa NNE 25.7 km/h 48.3 km/h 93% 0.76 mm WeatherDisplay:10.37 W/m2 RA
17:30 15.1 °C 13.9 °C 1002.6 hPa NNE 25.7 km/h 48.3 km/h 93% 0.51 mm WeatherDisplay:10.37 W/m2 RA
17:40 15.1 °C 13.9 °C 1002.3 hPa NNE 25.7 km/h 48.3 km/h 93% 0.76 mm WeatherDisplay:10.37 W/m2 RA
17:45 15.1 °C 13.9 °C 1002.6 hPa NNE 25.7 km/h 48.3 km/h 93% 0.76 mm WeatherDisplay:10.37 W/m2 RA
17:50 15.1 °C 13.9 °C 1002.6 hPa NNE 25.7 km/h 48.3 km/h 93% 1.27 mm WeatherDisplay:10.37 W/m2 RA
17:55 15.1 °C 13.9 °C 1002.6 hPa NNE 25.7 km/h 48.3 km/h 93% 1.02 mm WeatherDisplay:10.37 W/m2 RA
18:00 15.1 °C 14 °C 1002.6 hPa NNE 25.7 km/h 48.3 km/h 93% 0.76 mm WeatherDisplay:10.37 W/m2 RA
18:05 15.1 °C 14 °C 1002.6 hPa NNE 25.7 km/h 48.3 km/h 93% 0.51 mm WeatherDisplay:10.37 W/m2 RA
18:10 15.1 °C 14 °C 1002.6 hPa NNE 25.7 km/h 48.3 km/h 93% 0.51 mm WeatherDisplay:10.37 W/m2 RA
18:15 15.2 °C 14.1 °C 1002.6 hPa NE 14.5 km/h 48.3 km/h 93% 0.76 mm WeatherDisplay:10.37 W/m2 RA
18:20 15.2 °C 14.1 °C 1002.3 hPa NE 14.5 km/h 33.8 km/h 93% 0.51 mm WeatherDisplay:10.37 W/m2 RA
18:25 15.2 °C 14.1 °C 1002.3 hPa NE 14.5 km/h 33.8 km/h 93% 0.25 mm WeatherDisplay:10.37 W/m2 RA
18:30 15.3 °C 14.2 °C 1002.6 hPa NE 14.5 km/h 33.8 km/h 93% 0.51 mm WeatherDisplay:10.37 W/m2 RA
18:35 15.3 °C 14.2 °C 1002.6 hPa NE 14.5 km/h 33.8 km/h 93% 0.76 mm WeatherDisplay:10.37 W/m2 RA
18:40 15.3 °C 14.2 °C 1002.6 hPa NE 14.5 km/h 33.8 km/h 93% 1.02 mm WeatherDisplay:10.37 W/m2 RA
18:45 15.3 °C 14.2 °C 1002.6 hPa North 14.5 km/h 33.8 km/h 93% 1.27 mm WeatherDisplay:10.37 W/m2 +RA
18:50 15.3 °C 14.2 °C 1002.6 hPa NW 14.5 km/h 33.8 km/h 93% 1.78 mm WeatherDisplay:10.37 W/m2 +RA
18:55 15.4 °C 14.3 °C 1002.6 hPa NNE 14.5 km/h 33.8 km/h 93% 1.27 mm WeatherDisplay:10.37 W/m2 +RA
19:00 15.4 °C 14.3 °C 1002.6 hPa NNW 14.5 km/h 33.8 km/h 93% 1.52 mm WeatherDisplay:10.37 W/m2 +RA
19:05 15.4 °C 14.3 °C 1002.3 hPa NW 14.5 km/h 33.8 km/h 93% 1.27 mm WeatherDisplay:10.37 W/m2 +RA
19:10 15.4 °C 14.3 °C 1001.9 hPa NNW 14.5 km/h 33.8 km/h 93% 0.76 mm WeatherDisplay:10.37 W/m2 +RA
19:15 15.4 °C 14.3 °C 1001.9 hPa NNE 19.3 km/h 37 km/h 93% 0.51 mm WeatherDisplay:10.37 W/m2 -RA
19:20 15.5 °C 14.3 °C 1001.9 hPa NNE 19.3 km/h 37 km/h 93% 0.76 mm WeatherDisplay:10.37 W/m2 -RA
19:25 15.5 °C 14.4 °C 1001.6 hPa NNE 12.9 km/h 37 km/h 93% 0.51 mm WeatherDisplay:10.37 W/m2 -RA
19:30 15.5 °C 14.4 °C 1001.6 hPa NNE 12.9 km/h 12.9 km/h 93% 0.76 mm WeatherDisplay:10.37 W/m2 -RA
19:40 15.5 °C 14.4 °C 1001.6 hPa NNE 12.9 km/h 12.9 km/h 93% 0.25 mm WeatherDisplay:10.37 W/m2 -RA
19:45 15.6 °C 14.4 °C 1001.6 hPa NNE 16.1 km/h 40.2 km/h 93% 0.51 mm WeatherDisplay:10.37 W/m2 -RA
19:50 15.6 °C 14.4 °C 1001.6 hPa NNE 16.1 km/h 40.2 km/h 93% 0.25 mm WeatherDisplay:10.37 W/m2 -RA
19:55 15.6 °C 14.4 °C 1001.2 hPa NE 14.5 km/h 40.2 km/h 93% 0.51 mm WeatherDisplay:10.37 W/m2 -RA
20:00 15.6 °C 14.4 °C 1001.2 hPa NE 14.5 km/h 32.2 km/h 93% 0.25 mm WeatherDisplay:10.37 W/m2 -RA
20:05 15.6 °C 14.4 °C 1001.2 hPa NE 14.5 km/h 32.2 km/h 93% 0.25 mm WeatherDisplay:10.37 W/m2 -RA
20:10 15.6 °C 14.4 °C 1001.2 hPa NE 14.5 km/h 32.2 km/h 93% 0.51 mm WeatherDisplay:10.37 W/m2 -RA
20:15 15.6 °C 14.4 °C 1001.2 hPa ENE 20.9 km/h 53.1 km/h 93% 0.76 mm WeatherDisplay:10.37 W/m2 -RA
20:20 15.6 °C 14.4 °C 1001.2 hPa ENE 20.9 km/h 53.1 km/h 93% 0.51 mm WeatherDisplay:10.37 W/m2 -RA
20:25 15.6 °C 14.4 °C 1001.2 hPa ENE 20.9 km/h 53.1 km/h 93% 0.51 mm WeatherDisplay:10.37 W/m2 -RA
20:30 15.5 °C 14.4 °C 1000.9 hPa ENE 20.9 km/h 53.1 km/h 93% 0.76 mm WeatherDisplay:10.37 W/m2 -RA
20:35 15.5 °C 14.4 °C 1001.2 hPa ENE 20.9 km/h 53.1 km/h 93% 0.76 mm WeatherDisplay:10.37 W/m2 -RA
20:40 15.5 °C 14.4 °C 1000.9 hPa ENE 20.9 km/h 53.1 km/h 93% 0.51 mm WeatherDisplay:10.37 W/m2 -RA
20:45 15.4 °C 14.3 °C 1000.9 hPa ENE 20.9 km/h 53.1 km/h 93% 0.51 mm WeatherDisplay:10.37 W/m2 -RA
20:50 15.4 °C 14.3 °C 1000.9 hPa ENE 20.9 km/h 53.1 km/h 93% 0.51 mm WeatherDisplay:10.37 W/m2 -RA
20:55 15.4 °C 14.3 °C 1000.9 hPa ENE 20.9 km/h 53.1 km/h 93% 0.51 mm WeatherDisplay:10.37 W/m2 -RA
21:00 15.4 °C 14.3 °C 1000.9 hPa ENE 20.9 km/h 53.1 km/h 93% 0.51 mm WeatherDisplay:10.37 W/m2 -RA
21:05 15.4 °C 14.3 °C 1000.9 hPa ENE 20.9 km/h 53.1 km/h 93% 0.51 mm WeatherDisplay:10.37 W/m2 -RA
21:10 15.5 °C 14.4 °C 1000.9 hPa ENE 20.9 km/h 53.1 km/h 93% 0.25 mm WeatherDisplay:10.37 W/m2 -RA
21:15 15.5 °C 14.4 °C 1000.9 hPa ENE 14.5 km/h 53.1 km/h 93% 0.51 mm WeatherDisplay:10.37 W/m2 -RA
21:20 15.5 °C 14.4 °C 1000.6 hPa NE 14.5 km/h 14.5 km/h 93% 0.51 mm WeatherDisplay:10.37 W/m2 -RA
21:25 15.5 °C 14.4 °C 1000.9 hPa NE 14.5 km/h 14.5 km/h 93% 0.25 mm WeatherDisplay:10.37 W/m2 -RA
21:30 15.6 °C 14.4 °C 1000.6 hPa NE 14.5 km/h 14.5 km/h 93% 0.25 mm WeatherDisplay:10.37 W/m2 -RA
21:40 15.6 °C 14.4 °C 1000.9 hPa NE 14.5 km/h 14.5 km/h 93% 0.25 mm WeatherDisplay:10.37 W/m2 -RA
21:45 15.6 °C 14.4 °C 1000.6 hPa NE 14.5 km/h 40.2 km/h 93% 0 mm WeatherDisplay:10.37 W/m2 -RA
21:50 15.6 °C 14.4 °C 1000.6 hPa ENE 14.5 km/h 40.2 km/h 93% 0.25 mm WeatherDisplay:10.37 W/m2 -RA
21:55 15.6 °C 14.4 °C 1000.6 hPa NE 20.9 km/h 46.7 km/h 93% 0 mm WeatherDisplay:10.37 W/m2 -RA
22:00 15.6 °C 14.5 °C 1000.6 hPa NE 20.9 km/h 46.7 km/h 93% 0 mm WeatherDisplay:10.37 W/m2 -RA
22:05 15.6 °C 14.5 °C 1000.6 hPa NE 20.9 km/h 46.7 km/h 93% 0 mm WeatherDisplay:10.37 W/m2 -RA
22:10 15.6 °C 14.5 °C 1000.6 hPa NE 20.9 km/h 46.7 km/h 93% 0.25 mm WeatherDisplay:10.37 W/m2 -RA
22:15 15.6 °C 14.5 °C 1000.6 hPa NE 20.9 km/h 51.5 km/h 93% 0 mm WeatherDisplay:10.37 W/m2 -RA
22:20 15.6 °C 14.5 °C 1000.6 hPa ENE 20.9 km/h 51.5 km/h 93% 0 mm WeatherDisplay:10.37 W/m2 -RA
22:25 15.7 °C 14.6 °C 1000.6 hPa ENE 20.9 km/h 51.5 km/h 93% 0 mm WeatherDisplay:10.37 W/m2 -RA
22:30 15.7 °C 14.6 °C 1000.6 hPa ENE 20.9 km/h 51.5 km/h 93% 0 mm WeatherDisplay:10.37 W/m2 -RA
22:35 15.7 °C 14.6 °C 1000.6 hPa ENE 20.9 km/h 51.5 km/h 93% 0.25 mm WeatherDisplay:10.37 W/m2 -RA
22:40 15.8 °C 14.7 °C 1000.6 hPa ENE 20.9 km/h 51.5 km/h 93% 0 mm WeatherDisplay:10.37 W/m2 -RA
22:45 15.8 °C 14.7 °C 1000.6 hPa ENE 16.1 km/h 51.5 km/h 93% 0 mm WeatherDisplay:10.37 W/m2 -RA
22:50 15.8 °C 14.7 °C 1000.6 hPa ENE 16.1 km/h 41.8 km/h 93% 0 mm WeatherDisplay:10.37 W/m2 -RA
22:55 15.8 °C 14.7 °C 1000.2 hPa ENE 16.1 km/h 41.8 km/h 93% 0 mm WeatherDisplay:10.37 W/m2 -RA
23:00 15.8 °C 14.7 °C 1000.6 hPa ENE 16.1 km/h 41.8 km/h 93% 0.25 mm WeatherDisplay:10.37 W/m2 -RA
23:05 15.9 °C 14.8 °C 1000.2 hPa ENE 16.1 km/h 41.8 km/h 93% 0.25 mm WeatherDisplay:10.37 W/m2 -RA
23:10 15.9 °C 14.8 °C 1000.2 hPa ENE 16.1 km/h 41.8 km/h 93% 0.25 mm WeatherDisplay:10.37 W/m2 -RA
23:15 15.9 °C 14.8 °C 1000.2 hPa ENE 14.5 km/h 41.8 km/h 93% 0 mm WeatherDisplay:10.37 W/m2 -RA
23:25 16.1 °C 14.9 °C 1000.6 hPa ENE 19.3 km/h 51.5 km/h 93% 0 mm WeatherDisplay:10.37 W/m2 -RA
23:30 16.1 °C 14.9 °C 1000.6 hPa ENE 19.3 km/h 51.5 km/h 93% 0.25 mm WeatherDisplay:10.37 W/m2 -RA
23:35 16.1 °C 14.9 °C 1000.6 hPa ENE 19.3 km/h 51.5 km/h 93% 0 mm WeatherDisplay:10.37 W/m2 -RA
23:55 16.2 °C 15.1 °C 1000.9 hPa ENE 19.3 km/h 51.5 km/h 93% 0 mm WeatherDisplay:10.37 W/m2 -RA
Piedmont Bend
Compliments of Weather Underground - 4 mb